createdAt,value
2018-04-18T00:01:21.183Z,99.10
2018-04-18T00:03:51.145Z,99.10
2018-04-18T00:06:21.096Z,99.60
2018-04-18T00:08:51.812Z,99.40
2018-04-18T00:11:22.525Z,99.30
2018-04-18T00:13:53.254Z,99.30
2018-04-18T00:16:24.006Z,99.70
2018-04-18T00:18:54.913Z,99.10
2018-04-18T00:21:24.845Z,99.10
2018-04-18T00:23:55.666Z,99.00
2018-04-18T00:26:25.641Z,99.00
2018-04-18T00:28:55.593Z,99.70
2018-04-18T00:31:25.533Z,99.70
2018-04-18T00:33:55.481Z,99.90
2018-04-18T00:36:26.217Z,99.90
2018-04-18T00:38:57.022Z,99.90
2018-04-18T00:41:27.728Z,99.90
2018-04-18T00:43:58.041Z,99.90
2018-04-18T00:46:28.005Z,99.90
2018-04-18T00:48:58.678Z,99.90
2018-04-18T00:51:28.800Z,99.90
2018-04-18T00:53:58.734Z,99.90
2018-04-18T00:56:29.165Z,99.90
2018-04-18T00:59:00.013Z,99.90
2018-04-18T01:01:30.785Z,99.90
2018-04-18T01:04:01.487Z,99.90
2018-04-18T01:06:32.205Z,99.90
2018-04-18T01:09:02.180Z,99.90
2018-04-18T01:11:32.194Z,99.90
2018-04-18T01:14:02.905Z,99.90
2018-04-18T01:16:33.648Z,99.90
2018-04-18T01:19:03.654Z,99.90
2018-04-18T01:21:34.383Z,99.90
2018-04-18T01:24:05.093Z,99.90
2018-04-18T01:26:34.996Z,99.90
2018-04-18T01:29:05.013Z,99.90
2018-04-18T01:31:34.981Z,99.90
2018-04-18T01:34:05.205Z,99.90
2018-04-18T01:36:35.264Z,99.90
2018-04-18T01:39:05.932Z,99.90
2018-04-18T01:41:36.637Z,99.90
2018-04-18T01:44:06.547Z,99.90
2018-04-18T01:46:36.494Z,99.90
2018-04-18T01:49:24.107Z,99.90
2018-04-18T01:51:54.850Z,99.90
2018-04-18T01:54:25.585Z,99.90
2018-04-18T01:56:55.533Z,99.90
2018-04-18T01:59:25.491Z,99.90
2018-04-18T02:01:55.475Z,99.90
2018-04-18T02:04:25.373Z,99.90
2018-04-18T02:06:55.297Z,99.90
2018-04-18T02:09:26.116Z,99.90
2018-04-18T02:11:56.046Z,99.90
2018-04-18T02:14:25.986Z,99.90
2018-04-18T02:16:55.945Z,99.90
2018-04-18T02:19:25.834Z,99.90
2018-04-18T02:21:55.765Z,99.90
2018-04-18T02:24:25.708Z,99.90
2018-04-18T02:26:55.673Z,99.90
2018-04-18T02:29:25.993Z,99.90
2018-04-18T02:31:56.051Z,99.90
2018-04-18T02:34:26.054Z,99.90
2018-04-18T02:36:56.147Z,99.90
2018-04-18T02:39:26.051Z,99.90
2018-04-18T02:41:56.010Z,99.90
2018-04-18T02:44:26.732Z,99.90
2018-04-18T02:46:57.535Z,99.90
2018-04-18T02:49:27.513Z,99.90
2018-04-18T02:51:58.290Z,99.90
2018-04-18T02:54:28.224Z,99.90
2018-04-18T02:56:58.929Z,99.90
2018-04-18T02:59:28.869Z,99.90
2018-04-18T03:01:59.601Z,99.90
2018-04-18T03:04:29.523Z,99.90
2018-04-18T03:07:00.241Z,99.90
2018-04-18T03:09:31.124Z,99.90
2018-04-18T03:12:01.906Z,99.90
2018-04-18T03:14:31.895Z,99.90
2018-04-18T03:17:01.885Z,99.90
2018-04-18T03:19:32.545Z,99.90
2018-04-18T03:22:03.158Z,99.90
2018-04-18T03:24:33.830Z,99.90
2018-04-18T03:27:04.531Z,99.90
2018-04-18T03:29:35.217Z,99.90
2018-04-18T03:32:05.114Z,99.90
2018-04-18T03:34:35.005Z,99.90
2018-04-18T03:37:04.949Z,99.90
2018-04-18T03:39:34.897Z,99.90
2018-04-18T03:44:41.714Z,99.90
2018-04-18T03:47:12.505Z,99.90
2018-04-18T03:49:43.310Z,99.90
2018-04-18T03:52:13.229Z,99.90
2018-04-18T03:54:43.174Z,99.90
2018-04-18T03:57:13.902Z,99.90
2018-04-18T03:59:44.654Z,99.90
2018-04-18T04:02:15.358Z,99.90
2018-04-18T04:04:46.185Z,99.90
2018-04-18T04:07:16.081Z,99.90
2018-04-18T04:09:46.044Z,99.90
2018-04-18T04:12:16.773Z,99.90
2018-04-18T04:14:47.471Z,99.90
2018-04-18T04:17:35.173Z,99.90
2018-04-18T04:20:23.701Z,99.90
2018-04-18T04:23:12.240Z,99.90
2018-04-18T04:25:42.949Z,99.90
2018-04-18T04:28:12.877Z,99.90
2018-04-18T04:30:43.605Z,99.90
2018-04-18T04:33:14.358Z,99.90
2018-04-18T04:35:45.120Z,99.90
2018-04-18T04:38:15.124Z,99.90
2018-04-18T04:40:45.089Z,99.90
2018-04-18T04:43:15.020Z,99.90
2018-04-18T04:45:45.829Z,99.90
2018-04-18T04:48:15.782Z,99.90
2018-04-18T04:50:45.733Z,99.90
2018-04-18T04:53:15.675Z,99.90
2018-04-18T04:55:46.008Z,99.90
2018-04-18T04:58:15.989Z,99.90
2018-04-18T05:00:46.726Z,99.90
2018-04-18T05:03:17.499Z,99.90
2018-04-18T05:05:48.410Z,99.90
2018-04-18T05:08:18.338Z,99.90
2018-04-18T05:10:49.142Z,99.90
2018-04-18T05:13:19.817Z,99.90
2018-04-18T05:15:49.725Z,99.90
2018-04-18T05:18:20.527Z,99.90
2018-04-18T05:20:50.485Z,99.90
2018-04-18T05:23:21.229Z,99.90
2018-04-18T05:25:51.983Z,99.90
2018-04-18T05:28:22.729Z,99.90
2018-04-18T05:30:53.459Z,99.90
2018-04-18T05:33:24.166Z,99.90
2018-04-18T05:35:54.911Z,99.90
2018-04-18T05:38:25.705Z,99.90
2018-04-18T05:40:56.538Z,99.90
2018-04-18T05:43:26.447Z,99.90
2018-04-18T05:45:56.385Z,99.90
2018-04-18T05:48:26.305Z,99.90
2018-04-18T05:50:57.132Z,99.90
2018-04-18T05:53:27.086Z,99.90
2018-04-18T05:55:57.028Z,99.90
2018-04-18T05:58:26.942Z,99.90
2018-04-18T06:00:56.881Z,99.90
2018-04-18T06:03:26.825Z,99.90
2018-04-18T06:05:57.520Z,99.90
2018-04-18T06:08:28.046Z,99.90
2018-04-18T06:10:57.912Z,99.90
2018-04-18T06:13:28.591Z,99.90
2018-04-18T06:15:59.570Z,99.90
2018-04-18T06:18:30.241Z,99.90
2018-04-18T06:21:00.896Z,99.90
2018-04-18T06:23:30.834Z,99.90
2018-04-18T06:26:00.692Z,99.90
2018-04-18T06:28:31.374Z,99.90
2018-04-18T06:31:01.289Z,99.90
2018-04-18T06:33:31.155Z,99.90
2018-04-18T06:36:02.100Z,99.90
2018-04-18T06:38:32.022Z,99.90
2018-04-18T06:41:01.954Z,99.90
2018-04-18T06:43:32.696Z,99.90
2018-04-18T06:46:02.606Z,99.90
2018-04-18T06:48:33.361Z,99.90
2018-04-18T06:51:03.290Z,99.90
2018-04-18T06:53:33.966Z,99.90
2018-04-18T06:56:04.964Z,99.90
2018-04-18T06:58:35.857Z,99.90
2018-04-18T07:01:05.785Z,99.90
2018-04-18T07:03:35.706Z,99.90
2018-04-18T07:06:05.729Z,99.90
2018-04-18T07:08:35.624Z,99.90
2018-04-18T07:11:06.383Z,99.90
2018-04-18T07:13:37.080Z,99.90
2018-04-18T07:16:07.753Z,99.90
2018-04-18T07:18:37.659Z,99.90
2018-04-18T07:21:08.370Z,99.90
2018-04-18T07:23:38.258Z,99.90
2018-04-18T07:26:08.946Z,99.90
2018-04-18T07:28:41.158Z,99.90
2018-04-18T07:31:11.099Z,99.90
2018-04-18T07:33:41.000Z,99.90
2018-04-18T07:36:10.929Z,99.90
2018-04-18T07:38:40.841Z,99.60
2018-04-18T07:41:10.772Z,98.50
2018-04-18T07:43:40.670Z,98.10
2018-04-18T07:46:10.544Z,98.40
2018-04-18T07:48:40.450Z,98.40
2018-04-18T07:51:10.341Z,98.40
2018-04-18T07:53:41.086Z,96.50
2018-04-18T07:56:11.756Z,96.10
2018-04-18T07:58:41.696Z,96.10
2018-04-18T08:01:13.547Z,95.60
2018-04-18T08:03:43.446Z,95.60
2018-04-18T08:06:14.733Z,95.90
2018-04-18T08:08:44.959Z,95.50
2018-04-18T08:11:14.862Z,94.40
2018-04-18T08:13:45.685Z,95.60
2018-04-18T08:16:15.594Z,95.60
2018-04-18T08:18:46.258Z,95.40
2018-04-18T08:21:16.250Z,95.00
2018-04-18T08:23:46.264Z,94.70
2018-04-18T08:26:17.500Z,93.90
2018-04-18T08:28:47.576Z,93.90
2018-04-18T08:31:18.294Z,93.10
2018-04-18T08:33:48.284Z,93.10
2018-04-18T08:36:19.094Z,93.20
2018-04-18T08:38:49.073Z,93.20
2018-04-18T08:41:20.156Z,92.40
2018-04-18T08:43:50.088Z,92.40
2018-04-18T08:46:20.014Z,92.30
2018-04-18T08:48:53.575Z,91.80
2018-04-18T08:51:23.649Z,91.70
2018-04-18T08:53:55.143Z,90.80
2018-04-18T08:56:25.155Z,90.80
2018-04-18T08:58:56.168Z,91.10
2018-04-18T09:01:26.957Z,91.60
2018-04-18T09:03:57.704Z,91.60
2018-04-18T09:06:28.593Z,91.50
2018-04-18T09:08:58.562Z,91.50
2018-04-18T09:11:28.599Z,90.70
2018-04-18T09:13:59.465Z,91.50
2018-04-18T09:16:30.361Z,90.80
2018-04-18T09:19:00.757Z,90.80
2018-04-18T09:21:31.792Z,90.30
2018-04-18T09:24:03.136Z,90.30
2018-04-18T09:26:34.796Z,92.60
2018-04-18T09:29:04.858Z,91.10
2018-04-18T09:31:35.569Z,91.70
2018-04-18T09:34:06.316Z,91.30
2018-04-18T09:36:37.081Z,87.20
2018-04-18T09:39:07.784Z,90.90
2018-04-18T09:41:38.533Z,91.50
2018-04-18T09:44:09.252Z,93.80
2018-04-18T09:46:40.002Z,93.80
2018-04-18T09:49:11.170Z,91.20
2018-04-18T09:51:45.691Z,91.20
2018-04-18T09:54:15.677Z,91.50
2018-04-18T09:56:45.644Z,90.70
2018-04-18T09:59:16.739Z,91.80
2018-04-18T10:01:48.179Z,91.80
2018-04-18T10:04:24.504Z,92.00
2018-04-18T10:06:54.455Z,92.10
2018-04-18T10:09:25.035Z,90.20
2018-04-18T10:11:55.452Z,89.90
2018-04-18T10:14:25.478Z,89.70
2018-04-18T10:16:55.435Z,89.60
2018-04-18T10:19:26.259Z,90.50
2018-04-18T10:21:57.088Z,87.10
2018-04-18T10:24:27.074Z,86.90
2018-04-18T10:26:57.085Z,86.60
2018-04-18T10:29:28.688Z,87.40
2018-04-18T10:31:59.467Z,84.40
2018-04-18T10:34:29.472Z,84.40
2018-04-18T10:39:36.430Z,80.80
2018-04-18T10:42:07.240Z,78.80
2018-04-18T10:44:37.268Z,78.70
2018-04-18T10:47:07.268Z,73.20
2018-04-18T10:49:37.325Z,73.20
2018-04-18T10:52:08.120Z,74.80
2018-04-18T10:54:39.091Z,76.90
2018-04-18T10:57:09.127Z,76.90
2018-04-18T10:59:39.952Z,74.60
2018-04-18T11:02:10.772Z,75.90
2018-04-18T11:04:40.860Z,75.80
2018-04-18T11:07:10.925Z,78.90
2018-04-18T11:09:40.961Z,71.20
2018-04-18T11:12:11.774Z,73.00
2018-04-18T11:14:42.550Z,71.20
2018-04-18T11:17:12.645Z,71.60
2018-04-18T11:19:43.428Z,72.60
2018-04-18T11:22:15.124Z,68.30
2018-04-18T11:24:46.102Z,68.00
2018-04-18T11:27:16.184Z,68.00
2018-04-18T11:29:47.183Z,62.50
2018-04-18T11:32:17.211Z,62.60
2018-04-18T11:34:47.220Z,63.40
2018-04-18T11:37:18.073Z,64.20
2018-04-18T11:39:48.256Z,64.00
2018-04-18T11:42:18.295Z,59.70
2018-04-18T11:44:48.362Z,63.00
2018-04-18T11:47:19.152Z,61.50
2018-04-18T11:49:51.432Z,59.00
2018-04-18T11:52:22.227Z,65.70
2018-04-18T11:54:52.263Z,65.70
2018-04-18T11:57:22.384Z,60.30
2018-04-18T11:59:52.588Z,59.20
2018-04-18T12:02:23.178Z,59.50
2018-04-18T12:04:53.225Z,58.00
2018-04-18T12:07:23.193Z,56.40
2018-04-18T12:09:53.242Z,60.20
2018-04-18T12:12:23.344Z,58.90
2018-04-18T12:14:54.668Z,59.30
2018-04-18T12:17:25.292Z,59.00
2018-04-18T12:19:55.301Z,55.00
2018-04-18T12:22:26.160Z,59.50
2018-04-18T12:24:56.195Z,59.50
2018-04-18T12:27:28.833Z,57.60
2018-04-18T12:29:58.937Z,57.40
2018-04-18T12:32:28.928Z,54.60
2018-04-18T12:34:59.729Z,53.10
2018-04-18T12:37:30.529Z,54.00
2018-04-18T12:40:01.407Z,54.30
2018-04-18T12:42:32.222Z,53.50
2018-04-18T12:45:02.250Z,53.40
2018-04-18T12:47:32.248Z,56.40
2018-04-18T12:50:02.271Z,55.70
2018-04-18T12:52:32.297Z,53.60
2018-04-18T12:55:03.169Z,51.80
2018-04-18T12:57:33.242Z,51.80
2018-04-18T13:00:04.405Z,53.60
2018-04-18T13:02:35.427Z,51.70
2018-04-18T13:05:06.252Z,51.20
2018-04-18T13:07:37.147Z,48.80
2018-04-18T13:10:08.237Z,48.70
2018-04-18T13:12:38.308Z,48.90
2018-04-18T13:15:09.255Z,45.80
2018-04-18T13:17:40.036Z,50.90
2018-04-18T13:20:10.896Z,48.70
2018-04-18T13:22:41.689Z,49.60
2018-04-18T13:25:11.882Z,49.60
2018-04-18T13:27:41.908Z,48.80
2018-04-18T13:30:11.875Z,49.70
2018-04-18T13:32:42.694Z,50.50
2018-04-18T13:35:12.709Z,50.50
2018-04-18T13:37:43.328Z,48.50
2018-04-18T13:40:13.384Z,50.50
2018-04-18T13:42:44.199Z,49.20
2018-04-18T13:45:14.138Z,49.40
2018-04-18T13:47:44.102Z,49.00
2018-04-18T13:50:14.301Z,50.80
2018-04-18T13:52:44.251Z,48.30
2018-04-18T13:55:15.059Z,48.70
2018-04-18T13:57:45.065Z,48.80
2018-04-18T14:00:15.770Z,49.50
2018-04-18T14:02:46.528Z,45.80
2018-04-18T14:05:16.579Z,46.30
2018-04-18T14:07:48.227Z,47.10
2018-04-18T14:10:18.179Z,47.10
2018-04-18T14:12:48.151Z,47.30
2018-04-18T14:15:18.098Z,44.30
2018-04-18T14:17:48.122Z,44.70
2018-04-18T14:20:18.931Z,43.90
2018-04-18T14:22:48.843Z,43.80
2018-04-18T14:25:19.735Z,45.00
2018-04-18T14:27:49.641Z,45.10
2018-04-18T14:30:20.362Z,43.00
2018-04-18T14:32:51.192Z,42.10
2018-04-18T14:35:21.121Z,42.10
2018-04-18T14:37:51.902Z,41.20
2018-04-18T14:40:22.679Z,42.00
2018-04-18T14:42:53.429Z,43.10
2018-04-18T14:45:24.184Z,41.60
2018-04-18T14:47:54.990Z,41.80
2018-04-18T14:50:25.771Z,43.00
2018-04-18T14:52:56.519Z,42.30
2018-04-18T14:55:28.063Z,42.20
2018-04-18T14:57:58.886Z,44.00
2018-04-18T15:00:29.780Z,40.90
2018-04-18T15:02:59.768Z,40.90
2018-04-18T15:05:29.847Z,44.10
2018-04-18T15:07:59.795Z,42.90
2018-04-18T15:10:29.784Z,42.70
2018-04-18T15:12:59.804Z,45.40
2018-04-18T15:15:30.633Z,42.20
2018-04-18T15:18:01.502Z,44.00
2018-04-18T15:20:31.473Z,44.00
2018-04-18T15:23:02.192Z,42.20
2018-04-18T15:25:32.990Z,38.90
2018-04-18T15:28:03.075Z,38.90
2018-04-18T15:30:33.790Z,40.90
2018-04-18T15:33:04.542Z,41.40
2018-04-18T15:35:34.599Z,41.20
2018-04-18T15:38:05.449Z,41.60
2018-04-18T15:40:36.203Z,40.20
2018-04-18T15:43:06.936Z,42.20
2018-04-18T15:45:36.892Z,42.10
2018-04-18T15:48:06.878Z,43.00
2018-04-18T15:50:38.583Z,44.00
2018-04-18T15:53:08.561Z,43.90
2018-04-18T15:55:39.238Z,44.50
2018-04-18T15:58:09.166Z,44.40
2018-04-18T16:00:39.962Z,45.90
2018-04-18T16:03:09.905Z,45.90
2018-04-18T16:05:40.738Z,44.60
2018-04-18T16:08:10.680Z,44.70
2018-04-18T16:10:41.382Z,45.60
2018-04-18T16:13:11.324Z,45.60
2018-04-18T16:15:42.061Z,47.00
2018-04-18T16:18:12.813Z,47.50
2018-04-18T16:20:43.691Z,48.50
2018-04-18T16:23:13.613Z,49.10
2018-04-18T16:25:43.642Z,48.00
2018-04-18T16:28:13.542Z,46.90
2018-04-18T16:30:43.518Z,48.10
2018-04-18T16:33:14.286Z,49.90
2018-04-18T16:35:45.069Z,48.10
2018-04-18T16:38:15.809Z,49.60
2018-04-18T16:40:46.586Z,48.70
2018-04-18T16:43:16.571Z,48.70
2018-04-18T16:45:47.305Z,47.40
2018-04-18T16:48:17.346Z,47.30
2018-04-18T16:50:47.305Z,47.80
2018-04-18T16:53:17.330Z,49.00
2018-04-18T16:55:47.329Z,45.60
2018-04-18T16:58:18.087Z,48.30
2018-04-18T17:00:48.307Z,48.30
2018-04-18T17:03:18.492Z,50.00
2018-04-18T17:05:48.455Z,49.30
2018-04-18T17:08:19.179Z,48.40
2018-04-18T17:10:50.000Z,48.50
2018-04-18T17:13:20.788Z,50.00
2018-04-18T17:15:51.618Z,51.20
2018-04-18T17:18:21.605Z,51.20
2018-04-18T17:20:52.347Z,54.40
2018-04-18T17:23:22.383Z,54.30
2018-04-18T17:25:52.372Z,51.40
2018-04-18T17:28:23.094Z,52.20
2018-04-18T17:30:54.167Z,52.50
2018-04-18T17:33:24.910Z,53.30
2018-04-18T17:35:54.912Z,53.20
2018-04-18T17:38:25.681Z,55.20
2018-04-18T17:40:56.546Z,54.80
2018-04-18T17:43:27.322Z,54.00
2018-04-18T17:45:57.455Z,53.90
2018-04-18T17:48:28.302Z,53.90
2018-04-18T17:50:58.292Z,53.80
2018-04-18T17:53:29.040Z,59.00
2018-04-18T17:55:59.889Z,62.50
2018-04-18T17:58:29.888Z,62.50
2018-04-18T18:01:00.757Z,58.50
2018-04-18T18:03:31.924Z,59.50
2018-04-18T18:06:02.738Z,61.50
2018-04-18T18:08:33.536Z,60.70
2018-04-18T18:11:03.555Z,60.80
2018-04-18T18:13:33.613Z,60.30
2018-04-18T18:16:04.923Z,60.10
2018-04-18T18:18:35.745Z,61.50
2018-04-18T18:21:06.542Z,62.90
2018-04-18T18:23:37.317Z,65.70
2018-04-18T18:26:07.323Z,65.60
2018-04-18T18:28:38.242Z,64.60
2018-04-18T18:31:09.327Z,67.30
2018-04-18T18:33:39.294Z,67.20
2018-04-18T18:36:10.102Z,66.00
2018-04-18T18:38:40.927Z,65.70
2018-04-18T18:41:11.872Z,63.40
2018-04-18T18:43:41.865Z,63.80
2018-04-18T18:46:11.886Z,65.30
2018-04-18T18:48:42.384Z,64.80
2018-04-18T18:51:13.150Z,67.30
2018-04-18T18:53:43.189Z,67.20
2018-04-18T18:56:13.962Z,65.30
2018-04-18T18:58:44.902Z,62.80
2018-04-18T19:01:15.930Z,63.20
2018-04-18T19:03:46.990Z,62.20
2018-04-18T19:06:17.776Z,64.10
2018-04-18T19:08:48.576Z,66.40
2018-04-18T19:11:19.309Z,68.30
2018-04-18T19:13:49.296Z,68.20
2018-04-18T19:16:19.336Z,72.30
2018-04-18T19:18:50.316Z,72.10
2018-04-18T19:21:21.154Z,71.30
2018-04-18T19:23:51.264Z,71.20
2018-04-18T19:26:22.167Z,74.80
2018-04-18T19:28:52.254Z,75.00
2018-04-18T19:31:23.328Z,76.40
2018-04-18T19:33:54.210Z,74.60
2018-04-18T19:36:25.071Z,74.60
2018-04-18T19:38:56.189Z,77.30
2018-04-18T19:41:27.064Z,74.20
2018-04-18T19:43:58.593Z,75.90
2018-04-18T19:46:29.503Z,78.10
2018-04-18T19:48:59.692Z,78.10
2018-04-18T19:51:30.643Z,80.70
2018-04-18T19:54:00.699Z,80.70
2018-04-18T19:56:31.496Z,81.80
2018-04-18T19:59:02.329Z,77.90
2018-04-18T20:01:32.329Z,77.80
2018-04-18T20:04:03.147Z,79.60
2018-04-18T20:06:33.969Z,80.40
2018-04-18T20:09:04.912Z,77.50
2018-04-18T20:11:35.680Z,79.70
2018-04-18T20:14:05.648Z,79.60
2018-04-18T20:16:35.701Z,79.10
2018-04-18T20:19:06.492Z,81.10
2018-04-18T20:21:37.255Z,82.70
2018-04-18T20:24:08.070Z,81.40
2018-04-18T20:26:38.881Z,81.20
2018-04-18T20:29:08.883Z,81.20
2018-04-18T20:31:38.843Z,83.10
2018-04-18T20:34:09.622Z,83.60
2018-04-18T20:36:56.125Z,83.20
2018-04-18T20:39:26.117Z,83.10
2018-04-18T20:41:56.998Z,82.40
2018-04-18T20:44:27.045Z,82.40
2018-04-18T20:46:57.069Z,83.40
2018-04-18T20:49:27.806Z,83.50
2018-04-18T20:51:58.491Z,82.10
2018-04-18T20:54:28.426Z,82.10
2018-04-18T20:56:58.347Z,82.30
2018-04-18T20:59:28.305Z,81.80
2018-04-18T21:01:58.307Z,83.60
2018-04-18T21:04:29.150Z,81.90
2018-04-18T21:06:59.127Z,81.80
2018-04-18T21:09:29.115Z,82.30
2018-04-18T21:11:59.092Z,82.40
2018-04-18T21:14:29.866Z,81.90
2018-04-18T21:17:01.011Z,82.10
2018-04-18T21:19:30.944Z,82.00
2018-04-18T21:22:01.753Z,82.60
2018-04-18T21:24:32.454Z,83.50
2018-04-18T21:27:03.225Z,84.00
2018-04-18T21:29:33.207Z,84.10
2018-04-18T21:32:03.973Z,82.50
2018-04-18T21:34:33.958Z,82.40
2018-04-18T21:37:03.991Z,84.00
2018-04-18T21:39:33.989Z,83.80
2018-04-18T21:42:03.908Z,83.50
2018-04-18T21:44:34.614Z,85.00
2018-04-18T21:47:04.543Z,85.00
2018-04-18T21:49:35.287Z,86.00
2018-04-18T21:52:05.997Z,85.50
2018-04-18T21:54:35.984Z,85.40
2018-04-18T21:57:05.841Z,85.20
2018-04-18T21:59:36.583Z,88.20
2018-04-18T22:02:06.541Z,88.20
2018-04-18T22:04:36.559Z,86.00
2018-04-18T22:07:06.478Z,86.50
2018-04-18T22:09:36.509Z,86.10
2018-04-18T22:12:07.239Z,86.40
2018-04-18T22:14:37.977Z,86.30
2018-04-18T22:17:07.932Z,86.30
2018-04-18T22:19:37.853Z,85.80
2018-04-18T22:22:08.642Z,86.10
2018-04-18T22:24:38.705Z,86.00
2018-04-18T22:27:08.682Z,86.40
2018-04-18T22:29:39.464Z,86.20
2018-04-18T22:32:09.445Z,86.10
2018-04-18T22:34:39.358Z,86.50
2018-04-18T22:37:10.099Z,86.60
2018-04-18T22:39:40.793Z,86.60
2018-04-18T22:42:10.776Z,86.40
2018-04-18T22:44:41.520Z,86.20
2018-04-18T22:47:11.539Z,86.20
2018-04-18T22:49:41.489Z,85.20
2018-04-18T22:52:12.166Z,85.20
2018-04-18T22:54:42.921Z,85.00
2018-04-18T22:57:12.905Z,84.90
2018-04-18T22:59:43.632Z,86.20
2018-04-18T23:02:14.383Z,86.60
2018-04-18T23:04:44.315Z,86.60
2018-04-18T23:07:14.234Z,87.60
2018-04-18T23:09:44.887Z,90.70
2018-04-18T23:12:15.178Z,90.70
2018-04-18T23:14:45.953Z,89.10
2018-04-18T23:17:15.878Z,89.00
2018-04-18T23:19:46.578Z,89.60
2018-04-18T23:25:15.198Z,88.60
2018-04-18T23:27:47.566Z,90.40
2018-04-18T23:30:18.305Z,90.30
2018-04-18T23:32:48.298Z,90.20
2018-04-18T23:35:19.019Z,90.00
2018-04-18T23:37:48.919Z,90.00
2018-04-18T23:40:18.811Z,90.30
2018-04-18T23:42:48.704Z,91.70
2018-04-18T23:45:18.722Z,91.40
2018-04-18T23:47:48.587Z,91.70
2018-04-18T23:50:19.267Z,92.10
2018-04-18T23:52:49.223Z,92.10
2018-04-18T23:55:19.151Z,92.10
2018-04-18T23:57:49.818Z,92.30
